sensor_id;sensor_type;location;lat;lon;timestamp;temperature;humidity
4651;DHT22;2338;49.602;8.722;2023-04-01T00:01:54;11.00;99.90
4651;DHT22;2338;49.602;8.722;2023-04-01T00:04:39;11.00;99.90
4651;DHT22;2338;49.602;8.722;2023-04-01T00:07:25;11.00;99.90
4651;DHT22;2338;49.602;8.722;2023-04-01T00:10:12;11.00;99.90
4651;DHT22;2338;49.602;8.722;2023-04-01T00:12:59;11.00;99.90
4651;DHT22;2338;49.602;8.722;2023-04-01T00:15:45;10.90;99.90
4651;DHT22;2338;49.602;8.722;2023-04-01T00:18:31;10.90;99.90
4651;DHT22;2338;49.602;8.722;2023-04-01T00:21:18;10.80;99.90
4651;DHT22;2338;49.602;8.722;2023-04-01T00:24:04;10.90;99.90
4651;DHT22;2338;49.602;8.722;2023-04-01T00:26:51;10.80;99.90
4651;DHT22;2338;49.602;8.722;2023-04-01T00:29:38;10.80;99.90
4651;DHT22;2338;49.602;8.722;2023-04-01T00:32:24;10.80;99.90
4651;DHT22;2338;49.602;8.722;2023-04-01T00:35:10;10.70;99.90
4651;DHT22;2338;49.602;8.722;2023-04-01T00:37:56;10.70;99.90
4651;DHT22;2338;49.602;8.722;2023-04-01T00:40:43;10.70;99.90
4651;DHT22;2338;49.602;8.722;2023-04-01T00:43:29;10.70;99.90
4651;DHT22;2338;49.602;8.722;2023-04-01T00:46:17;10.70;99.90
4651;DHT22;2338;49.602;8.722;2023-04-01T00:49:02;10.80;99.90
4651;DHT22;2338;49.602;8.722;2023-04-01T00:51:50;10.80;99.90
4651;DHT22;2338;49.602;8.722;2023-04-01T00:54:37;10.90;99.90
4651;DHT22;2338;49.602;8.722;2023-04-01T00:57:29;10.90;99.90
4651;DHT22;2338;49.602;8.722;2023-04-01T01:00:16;10.80;99.90
4651;DHT22;2338;49.602;8.722;2023-04-01T01:03:04;10.80;99.90
4651;DHT22;2338;49.602;8.722;2023-04-01T01:06:11;10.90;99.90
4651;DHT22;2338;49.602;8.722;2023-04-01T01:09:28;10.80;99.90
4651;DHT22;2338;49.602;8.722;2023-04-01T01:12:18;10.90;99.90
4651;DHT22;2338;49.602;8.722;2023-04-01T01:15:11;10.90;99.90
4651;DHT22;2338;49.602;8.722;2023-04-01T01:18:02;10.90;99.90
4651;DHT22;2338;49.602;8.722;2023-04-01T01:21:18;10.90;99.90
4651;DHT22;2338;49.602;8.722;2023-04-01T01:24:22;11.00;99.90
4651;DHT22;2338;49.602;8.722;2023-04-01T01:27:11;10.90;99.90
4651;DHT22;2338;49.602;8.722;2023-04-01T01:30:20;10.90;99.90
4651;DHT22;2338;49.602;8.722;2023-04-01T01:33:24;10.90;99.90
4651;DHT22;2338;49.602;8.722;2023-04-01T01:36:13;10.90;99.90
4651;DHT22;2338;49.602;8.722;2023-04-01T01:39:01;10.90;99.90
4651;DHT22;2338;49.602;8.722;2023-04-01T01:41:49;10.80;99.90
4651;DHT22;2338;49.602;8.722;2023-04-01T01:44:35;10.80;99.90
4651;DHT22;2338;49.602;8.722;2023-04-01T01:47:23;10.80;99.90
4651;DHT22;2338;49.602;8.722;2023-04-01T01:50:09;10.80;99.90
4651;DHT22;2338;49.602;8.722;2023-04-01T01:53:05;10.90;99.90
4651;DHT22;2338;49.602;8.722;2023-04-01T01:55:50;10.90;99.90
4651;DHT22;2338;49.602;8.722;2023-04-01T01:58:38;10.80;99.90
4651;DHT22;2338;49.602;8.722;2023-04-01T02:01:28;10.80;99.90
4651;DHT22;2338;49.602;8.722;2023-04-01T02:04:16;10.80;99.90
4651;DHT22;2338;49.602;8.722;2023-04-01T02:07:04;10.90;99.90
4651;DHT22;2338;49.602;8.722;2023-04-01T02:09:54;10.90;99.90
4651;DHT22;2338;49.602;8.722;2023-04-01T02:12:41;10.80;99.90
4651;DHT22;2338;49.602;8.722;2023-04-01T02:15:28;10.80;99.90
4651;DHT22;2338;49.602;8.722;2023-04-01T02:18:17;10.80;99.90
4651;DHT22;2338;49.602;8.722;2023-04-01T02:21:05;10.80;99.90
4651;DHT22;2338;49.602;8.722;2023-04-01T02:23:52;10.80;99.90
4651;DHT22;2338;49.602;8.722;2023-04-01T02:26:40;10.80;99.90
4651;DHT22;2338;49.602;8.722;2023-04-01T02:29:26;10.90;99.90
4651;DHT22;2338;49.602;8.722;2023-04-01T02:32:13;10.80;99.90
4651;DHT22;2338;49.602;8.722;2023-04-01T02:35:00;10.90;99.90
4651;DHT22;2338;49.602;8.722;2023-04-01T02:37:50;10.90;99.90
4651;DHT22;2338;49.602;8.722;2023-04-01T02:40:46;10.80;99.90
4651;DHT22;2338;49.602;8.722;2023-04-01T02:43:33;10.80;99.90
4651;DHT22;2338;49.602;8.722;2023-04-01T02:46:18;10.90;99.90
4651;DHT22;2338;49.602;8.722;2023-04-01T02:49:05;10.90;99.90
4651;DHT22;2338;49.602;8.722;2023-04-01T02:51:50;10.90;99.90
4651;DHT22;2338;49.602;8.722;2023-04-01T02:54:36;10.90;99.90
4651;DHT22;2338;49.602;8.722;2023-04-01T02:57:22;10.90;99.90
4651;DHT22;2338;49.602;8.722;2023-04-01T03:00:11;10.90;99.90
4651;DHT22;2338;49.602;8.722;2023-04-01T03:02:56;10.80;99.90
4651;DHT22;2338;49.602;8.722;2023-04-01T03:05:42;10.90;99.90
4651;DHT22;2338;49.602;8.722;2023-04-01T03:08:28;10.90;99.90
4651;DHT22;2338;49.602;8.722;2023-04-01T03:11:14;10.90;99.90
4651;DHT22;2338;49.602;8.722;2023-04-01T03:14:00;10.90;99.90
4651;DHT22;2338;49.602;8.722;2023-04-01T03:16:47;11.00;99.90
4651;DHT22;2338;49.602;8.722;2023-04-01T03:19:33;10.90;99.90
4651;DHT22;2338;49.602;8.722;2023-04-01T03:22:18;10.90;99.90
4651;DHT22;2338;49.602;8.722;2023-04-01T03:25:06;10.90;99.90
4651;DHT22;2338;49.602;8.722;2023-04-01T03:27:53;10.80;99.90
4651;DHT22;2338;49.602;8.722;2023-04-01T03:30:38;10.80;99.90
4651;DHT22;2338;49.602;8.722;2023-04-01T03:33:26;10.80;99.90
4651;DHT22;2338;49.602;8.722;2023-04-01T03:36:11;10.80;99.90
4651;DHT22;2338;49.602;8.722;2023-04-01T03:38:57;10.80;99.90
4651;DHT22;2338;49.602;8.722;2023-04-01T03:41:43;10.80;99.90
4651;DHT22;2338;49.602;8.722;2023-04-01T03:44:31;10.70;99.90
4651;DHT22;2338;49.602;8.722;2023-04-01T03:47:17;10.70;99.90
4651;DHT22;2338;49.602;8.722;2023-04-01T03:50:05;10.70;99.90
4651;DHT22;2338;49.602;8.722;2023-04-01T03:52:51;10.80;99.90
4651;DHT22;2338;49.602;8.722;2023-04-01T03:55:37;10.80;99.90
4651;DHT22;2338;49.602;8.722;2023-04-01T03:58:23;10.80;99.90
4651;DHT22;2338;49.602;8.722;2023-04-01T04:01:17;10.80;99.90
4651;DHT22;2338;49.602;8.722;2023-04-01T04:04:03;10.80;99.90
4651;DHT22;2338;49.602;8.722;2023-04-01T04:06:51;10.80;99.90
4651;DHT22;2338;49.602;8.722;2023-04-01T04:09:36;10.80;99.90
4651;DHT22;2338;49.602;8.722;2023-04-01T04:12:22;10.80;99.90
4651;DHT22;2338;49.602;8.722;2023-04-01T04:15:08;10.80;99.90
4651;DHT22;2338;49.602;8.722;2023-04-01T04:17:54;10.80;99.90
4651;DHT22;2338;49.602;8.722;2023-04-01T04:20:43;10.80;99.90
4651;DHT22;2338;49.602;8.722;2023-04-01T04:23:32;10.80;99.90
4651;DHT22;2338;49.602;8.722;2023-04-01T04:26:18;10.80;99.90
4651;DHT22;2338;49.602;8.722;2023-04-01T04:29:04;10.90;99.90
4651;DHT22;2338;49.602;8.722;2023-04-01T04:31:49;10.90;99.90
4651;DHT22;2338;49.602;8.722;2023-04-01T04:34:35;10.90;99.90
4651;DHT22;2338;49.602;8.722;2023-04-01T04:37:21;10.80;99.90
4651;DHT22;2338;49.602;8.722;2023-04-01T04:40:08;10.80;99.90
4651;DHT22;2338;49.602;8.722;2023-04-01T04:42:54;10.80;99.90
4651;DHT22;2338;49.602;8.722;2023-04-01T04:45:41;10.80;99.90
4651;DHT22;2338;49.602;8.722;2023-04-01T04:48:26;10.70;99.90
4651;DHT22;2338;49.602;8.722;2023-04-01T04:51:16;10.60;99.90
4651;DHT22;2338;49.602;8.722;2023-04-01T04:54:02;10.70;99.90
4651;DHT22;2338;49.602;8.722;2023-04-01T04:56:51;10.70;99.90
4651;DHT22;2338;49.602;8.722;2023-04-01T04:59:37;10.80;99.90
4651;DHT22;2338;49.602;8.722;2023-04-01T05:02:23;10.80;99.90
4651;DHT22;2338;49.602;8.722;2023-04-01T05:05:08;10.80;99.90
4651;DHT22;2338;49.602;8.722;2023-04-01T05:07:54;10.80;99.90
4651;DHT22;2338;49.602;8.722;2023-04-01T05:10:40;10.70;99.90
4651;DHT22;2338;49.602;8.722;2023-04-01T05:13:27;10.70;99.90
4651;DHT22;2338;49.602;8.722;2023-04-01T05:16:16;10.70;99.90
4651;DHT22;2338;49.602;8.722;2023-04-01T05:19:02;10.60;99.90
4651;DHT22;2338;49.602;8.722;2023-04-01T05:21:47;10.60;99.90
4651;DHT22;2338;49.602;8.722;2023-04-01T05:24:33;10.50;99.90
4651;DHT22;2338;49.602;8.722;2023-04-01T05:27:19;10.40;99.90
4651;DHT22;2338;49.602;8.722;2023-04-01T05:30:08;10.40;99.90
4651;DHT22;2338;49.602;8.722;2023-04-01T05:32:53;10.40;99.90
4651;DHT22;2338;49.602;8.722;2023-04-01T05:35:39;10.30;99.90
4651;DHT22;2338;49.602;8.722;2023-04-01T05:38:26;10.30;99.90
4651;DHT22;2338;49.602;8.722;2023-04-01T05:41:12;10.40;99.90
4651;DHT22;2338;49.602;8.722;2023-04-01T05:43:58;10.30;99.90
4651;DHT22;2338;49.602;8.722;2023-04-01T05:46:45;10.30;99.90
4651;DHT22;2338;49.602;8.722;2023-04-01T05:49:33;10.30;99.90
4651;DHT22;2338;49.602;8.722;2023-04-01T05:52:19;10.30;99.90
4651;DHT22;2338;49.602;8.722;2023-04-01T05:55:05;10.40;99.90
4651;DHT22;2338;49.602;8.722;2023-04-01T05:57:52;10.30;99.90
4651;DHT22;2338;49.602;8.722;2023-04-01T06:00:37;10.30;99.90
4651;DHT22;2338;49.602;8.722;2023-04-01T06:03:25;10.40;99.90
4651;DHT22;2338;49.602;8.722;2023-04-01T06:06:14;10.30;99.90
4651;DHT22;2338;49.602;8.722;2023-04-01T06:09:07;10.30;99.90
4651;DHT22;2338;49.602;8.722;2023-04-01T06:12:08;10.20;99.90
4651;DHT22;2338;49.602;8.722;2023-04-01T06:15:11;10.40;99.90
4651;DHT22;2338;49.602;8.722;2023-04-01T06:18:42;10.30;99.90
4651;DHT22;2338;49.602;8.722;2023-04-01T06:25:12;10.50;99.90
4651;DHT22;2338;49.602;8.722;2023-04-01T06:28:46;10.40;99.90
4651;DHT22;2338;49.602;8.722;2023-04-01T06:31:56;10.40;99.90
4651;DHT22;2338;49.602;8.722;2023-04-01T06:35:01;10.50;99.90
4651;DHT22;2338;49.602;8.722;2023-04-01T06:38:05;10.50;99.90
4651;DHT22;2338;49.602;8.722;2023-04-01T06:44:16;10.40;99.90
4651;DHT22;2338;49.602;8.722;2023-04-01T06:47:18;10.30;99.90
4651;DHT22;2338;49.602;8.722;2023-04-01T06:50:18;10.30;99.90
4651;DHT22;2338;49.602;8.722;2023-04-01T06:53:12;10.30;99.90
4651;DHT22;2338;49.602;8.722;2023-04-01T06:56:02;10.30;99.90
4651;DHT22;2338;49.602;8.722;2023-04-01T06:58:53;10.30;99.90
4651;DHT22;2338;49.602;8.722;2023-04-01T07:01:41;10.30;99.90
4651;DHT22;2338;49.602;8.722;2023-04-01T07:04:30;10.30;99.90
4651;DHT22;2338;49.602;8.722;2023-04-01T07:07:24;10.30;99.90
4651;DHT22;2338;49.602;8.722;2023-04-01T07:10:15;10.40;99.90
4651;DHT22;2338;49.602;8.722;2023-04-01T07:13:05;10.40;99.90
4651;DHT22;2338;49.602;8.722;2023-04-01T07:16:07;10.40;99.90
4651;DHT22;2338;49.602;8.722;2023-04-01T07:18:58;10.40;99.90
4651;DHT22;2338;49.602;8.722;2023-04-01T07:21:49;10.40;99.90
4651;DHT22;2338;49.602;8.722;2023-04-01T07:24:39;10.40;99.90
4651;DHT22;2338;49.602;8.722;2023-04-01T07:27:27;10.40;99.90
4651;DHT22;2338;49.602;8.722;2023-04-01T07:30:18;10.40;99.90
4651;DHT22;2338;49.602;8.722;2023-04-01T07:33:07;10.40;99.90
4651;DHT22;2338;49.602;8.722;2023-04-01T07:36:00;10.40;99.90
4651;DHT22;2338;49.602;8.722;2023-04-01T07:38:57;10.40;99.90
4651;DHT22;2338;49.602;8.722;2023-04-01T07:41:52;10.40;99.90
4651;DHT22;2338;49.602;8.722;2023-04-01T07:44:47;10.40;99.90
4651;DHT22;2338;49.602;8.722;2023-04-01T07:47:56;10.40;99.90
4651;DHT22;2338;49.602;8.722;2023-04-01T07:50:50;10.30;99.90
4651;DHT22;2338;49.602;8.722;2023-04-01T07:53:46;10.40;99.90
4651;DHT22;2338;49.602;8.722;2023-04-01T07:56:38;10.40;99.90
4651;DHT22;2338;49.602;8.722;2023-04-01T07:59:35;10.40;99.90
4651;DHT22;2338;49.602;8.722;2023-04-01T08:02:44;10.30;99.90
4651;DHT22;2338;49.602;8.722;2023-04-01T08:05:34;10.30;99.90
4651;DHT22;2338;49.602;8.722;2023-04-01T08:08:32;10.30;99.90
4651;DHT22;2338;49.602;8.722;2023-04-01T08:11:27;10.30;99.90
4651;DHT22;2338;49.602;8.722;2023-04-01T08:14:21;10.30;99.90
4651;DHT22;2338;49.602;8.722;2023-04-01T08:17:17;10.30;99.90
4651;DHT22;2338;49.602;8.722;2023-04-01T08:20:23;10.20;99.90
4651;DHT22;2338;49.602;8.722;2023-04-01T08:23:13;10.20;99.90
4651;DHT22;2338;49.602;8.722;2023-04-01T08:26:04;10.20;99.90
4651;DHT22;2338;49.602;8.722;2023-04-01T08:28:55;10.10;99.90
4651;DHT22;2338;49.602;8.722;2023-04-01T08:31:47;10.20;99.90
4651;DHT22;2338;49.602;8.722;2023-04-01T08:34:38;10.20;99.90
4651;DHT22;2338;49.602;8.722;2023-04-01T08:37:30;10.20;99.90
4651;DHT22;2338;49.602;8.722;2023-04-01T08:40:39;10.20;99.90
4651;DHT22;2338;49.602;8.722;2023-04-01T08:47:07;10.10;99.90
4651;DHT22;2338;49.602;8.722;2023-04-01T08:53:25;10.10;99.90
4651;DHT22;2338;49.602;8.722;2023-04-01T08:56:18;10.10;99.90
4651;DHT22;2338;49.602;8.722;2023-04-01T08:59:21;10.10;99.90
4651;DHT22;2338;49.602;8.722;2023-04-01T09:02:37;10.10;99.90
4651;DHT22;2338;49.602;8.722;2023-04-01T09:05:43;10.10;99.90
4651;DHT22;2338;49.602;8.722;2023-04-01T09:08:42;10.20;99.90
4651;DHT22;2338;49.602;8.722;2023-04-01T09:11:42;10.20;99.90
4651;DHT22;2338;49.602;8.722;2023-04-01T09:21:37;10.20;99.90
4651;DHT22;2338;49.602;8.722;2023-04-01T09:24:42;10.10;99.90
4651;DHT22;2338;49.602;8.722;2023-04-01T09:27:34;10.10;99.90
4651;DHT22;2338;49.602;8.722;2023-04-01T09:30:55;10.10;99.90
4651;DHT22;2338;49.602;8.722;2023-04-01T09:34:13;10.10;99.90
4651;DHT22;2338;49.602;8.722;2023-04-01T09:37:18;10.20;99.90
4651;DHT22;2338;49.602;8.722;2023-04-01T09:40:17;10.20;99.90
4651;DHT22;2338;49.602;8.722;2023-04-01T09:43:21;10.20;99.90
4651;DHT22;2338;49.602;8.722;2023-04-01T09:46:18;10.20;99.90
4651;DHT22;2338;49.602;8.722;2023-04-01T09:49:18;10.20;99.90
4651;DHT22;2338;49.602;8.722;2023-04-01T09:52:15;10.20;99.90
4651;DHT22;2338;49.602;8.722;2023-04-01T09:55:21;10.20;99.90
4651;DHT22;2338;49.602;8.722;2023-04-01T10:05:34;10.20;99.90
4651;DHT22;2338;49.602;8.722;2023-04-01T10:08:41;10.30;99.90
4651;DHT22;2338;49.602;8.722;2023-04-01T10:14:44;10.30;99.90
4651;DHT22;2338;49.602;8.722;2023-04-01T10:21:16;10.40;99.90
4651;DHT22;2338;49.602;8.722;2023-04-01T10:24:39;10.40;99.90
4651;DHT22;2338;49.602;8.722;2023-04-01T10:31:25;10.40;99.90
4651;DHT22;2338;49.602;8.722;2023-04-01T10:34:42;10.40;99.90
4651;DHT22;2338;49.602;8.722;2023-04-01T10:37:53;10.30;99.90
4651;DHT22;2338;49.602;8.722;2023-04-01T10:40:57;10.30;99.90
4651;DHT22;2338;49.602;8.722;2023-04-01T10:44:17;10.40;99.90
4651;DHT22;2338;49.602;8.722;2023-04-01T10:47:39;10.30;99.90
4651;DHT22;2338;49.602;8.722;2023-04-01T10:54:19;10.40;99.90
4651;DHT22;2338;49.602;8.722;2023-04-01T10:57:31;10.40;99.90
4651;DHT22;2338;49.602;8.722;2023-04-01T11:00:32;10.50;99.90
4651;DHT22;2338;49.602;8.722;2023-04-01T11:07:23;10.40;99.90
4651;DHT22;2338;49.602;8.722;2023-04-01T11:10:58;10.50;99.90
4651;DHT22;2338;49.602;8.722;2023-04-01T11:14:21;10.40;99.90
4651;DHT22;2338;49.602;8.722;2023-04-01T11:17:39;10.40;99.90
4651;DHT22;2338;49.602;8.722;2023-04-01T11:24:15;10.50;99.90
4651;DHT22;2338;49.602;8.722;2023-04-01T11:27:17;10.50;99.90
4651;DHT22;2338;49.602;8.722;2023-04-01T11:30:19;10.60;99.90
4651;DHT22;2338;49.602;8.722;2023-04-01T11:33:08;10.60;99.90
4651;DHT22;2338;49.602;8.722;2023-04-01T11:36:19;10.50;99.90
4651;DHT22;2338;49.602;8.722;2023-04-01T11:39:22;10.50;99.90
4651;DHT22;2338;49.602;8.722;2023-04-01T11:42:17;10.60;99.90
4651;DHT22;2338;49.602;8.722;2023-04-01T11:45:19;10.60;99.90
4651;DHT22;2338;49.602;8.722;2023-04-01T11:48:23;10.70;99.90
4651;DHT22;2338;49.602;8.722;2023-04-01T11:51:29;10.80;99.90
4651;DHT22;2338;49.602;8.722;2023-04-01T11:54:33;10.80;99.90
4651;DHT22;2338;49.602;8.722;2023-04-01T11:57:43;10.70;99.90
4651;DHT22;2338;49.602;8.722;2023-04-01T12:00:51;10.70;99.90
4651;DHT22;2338;49.602;8.722;2023-04-01T12:03:54;10.70;99.90
4651;DHT22;2338;49.602;8.722;2023-04-01T12:06:49;10.80;99.90
4651;DHT22;2338;49.602;8.722;2023-04-01T12:09:46;10.70;99.90
4651;DHT22;2338;49.602;8.722;2023-04-01T12:12:39;10.70;99.90
4651;DHT22;2338;49.602;8.722;2023-04-01T12:15:34;10.70;99.90
4651;DHT22;2338;49.602;8.722;2023-04-01T12:18:27;10.70;99.90
4651;DHT22;2338;49.602;8.722;2023-04-01T12:21:24;10.70;99.90
4651;DHT22;2338;49.602;8.722;2023-04-01T12:24:34;10.70;99.90
4651;DHT22;2338;49.602;8.722;2023-04-01T12:27:34;10.80;99.90
4651;DHT22;2338;49.602;8.722;2023-04-01T12:30:34;10.80;99.90
4651;DHT22;2338;49.602;8.722;2023-04-01T12:33:35;10.80;99.90
4651;DHT22;2338;49.602;8.722;2023-04-01T12:36:45;10.80;99.90
4651;DHT22;2338;49.602;8.722;2023-04-01T12:39:51;10.80;99.90
4651;DHT22;2338;49.602;8.722;2023-04-01T12:42:57;10.80;99.90
4651;DHT22;2338;49.602;8.722;2023-04-01T12:45:49;10.80;99.90
4651;DHT22;2338;49.602;8.722;2023-04-01T12:49:10;10.90;99.90
4651;DHT22;2338;49.602;8.722;2023-04-01T12:52:09;10.90;99.90
4651;DHT22;2338;49.602;8.722;2023-04-01T12:55:19;10.90;99.90
4651;DHT22;2338;49.602;8.722;2023-04-01T12:58:43;10.90;99.90
4651;DHT22;2338;49.602;8.722;2023-04-01T13:01:46;10.90;99.90
4651;DHT22;2338;49.602;8.722;2023-04-01T13:04:53;10.90;99.90
4651;DHT22;2338;49.602;8.722;2023-04-01T13:08:02;10.90;99.90
4651;DHT22;2338;49.602;8.722;2023-04-01T13:11:15;10.80;99.90
4651;DHT22;2338;49.602;8.722;2023-04-01T13:14:24;10.90;99.90
4651;DHT22;2338;49.602;8.722;2023-04-01T13:17:20;10.90;99.90
4651;DHT22;2338;49.602;8.722;2023-04-01T13:20:16;11.00;99.90
4651;DHT22;2338;49.602;8.722;2023-04-01T13:23:11;10.90;99.90
4651;DHT22;2338;49.602;8.722;2023-04-01T13:26:06;10.90;99.90
4651;DHT22;2338;49.602;8.722;2023-04-01T13:29:00;11.00;99.90
4651;DHT22;2338;49.602;8.722;2023-04-01T13:32:09;11.00;99.90
4651;DHT22;2338;49.602;8.722;2023-04-01T13:38:24;11.00;99.90
4651;DHT22;2338;49.602;8.722;2023-04-01T13:41:22;11.10;99.90
4651;DHT22;2338;49.602;8.722;2023-04-01T13:44:14;11.20;99.90
4651;DHT22;2338;49.602;8.722;2023-04-01T13:47:22;11.10;99.90
4651;DHT22;2338;49.602;8.722;2023-04-01T13:50:37;11.10;99.90
4651;DHT22;2338;49.602;8.722;2023-04-01T13:53:54;11.10;99.90
4651;DHT22;2338;49.602;8.722;2023-04-01T13:56:50;11.10;99.90
4651;DHT22;2338;49.602;8.722;2023-04-01T14:00:10;11.00;99.90
4651;DHT22;2338;49.602;8.722;2023-04-01T14:03:19;11.00;99.90
4651;DHT22;2338;49.602;8.722;2023-04-01T14:06:13;11.00;99.90
4651;DHT22;2338;49.602;8.722;2023-04-01T14:09:27;11.00;99.90
4651;DHT22;2338;49.602;8.722;2023-04-01T14:12:28;11.00;99.90
4651;DHT22;2338;49.602;8.722;2023-04-01T14:15:26;11.00;99.90
4651;DHT22;2338;49.602;8.722;2023-04-01T14:18:46;11.10;99.90
4651;DHT22;2338;49.602;8.722;2023-04-01T14:21:42;11.10;99.90
4651;DHT22;2338;49.602;8.722;2023-04-01T14:24:50;11.00;99.90
4651;DHT22;2338;49.602;8.722;2023-04-01T14:27:50;11.00;99.90
4651;DHT22;2338;49.602;8.722;2023-04-01T14:30:50;11.00;99.90
4651;DHT22;2338;49.602;8.722;2023-04-01T14:33:47;10.90;99.90
4651;DHT22;2338;49.602;8.722;2023-04-01T14:36:53;10.90;99.90
4651;DHT22;2338;49.602;8.722;2023-04-01T14:40:12;11.00;99.90
4651;DHT22;2338;49.602;8.722;2023-04-01T14:43:29;11.00;99.90
4651;DHT22;2338;49.602;8.722;2023-04-01T14:46:41;11.00;99.90
4651;DHT22;2338;49.602;8.722;2023-04-01T14:49:34;11.00;99.90
4651;DHT22;2338;49.602;8.722;2023-04-01T14:52:26;11.00;99.90
4651;DHT22;2338;49.602;8.722;2023-04-01T14:55:23;11.00;99.90
4651;DHT22;2338;49.602;8.722;2023-04-01T14:58:13;11.00;99.90
4651;DHT22;2338;49.602;8.722;2023-04-01T15:01:09;11.00;99.90
4651;DHT22;2338;49.602;8.722;2023-04-01T15:04:07;10.90;99.90
4651;DHT22;2338;49.602;8.722;2023-04-01T15:07:05;10.90;99.90
4651;DHT22;2338;49.602;8.722;2023-04-01T15:09:56;11.00;99.90
4651;DHT22;2338;49.602;8.722;2023-04-01T15:12:54;11.10;99.90
4651;DHT22;2338;49.602;8.722;2023-04-01T15:15:58;11.10;99.90
4651;DHT22;2338;49.602;8.722;2023-04-01T15:18:55;11.10;99.90
4651;DHT22;2338;49.602;8.722;2023-04-01T15:22:06;11.10;99.90
4651;DHT22;2338;49.602;8.722;2023-04-01T15:25:13;11.10;99.90
4651;DHT22;2338;49.602;8.722;2023-04-01T15:28:08;11.10;99.90
4651;DHT22;2338;49.602;8.722;2023-04-01T15:31:01;11.10;99.90
4651;DHT22;2338;49.602;8.722;2023-04-01T15:34:01;11.10;99.90
4651;DHT22;2338;49.602;8.722;2023-04-01T15:36:55;11.10;99.90
4651;DHT22;2338;49.602;8.722;2023-04-01T15:39:54;11.10;99.90
4651;DHT22;2338;49.602;8.722;2023-04-01T15:42:53;11.00;99.90
4651;DHT22;2338;49.602;8.722;2023-04-01T15:45:51;11.10;99.90
4651;DHT22;2338;49.602;8.722;2023-04-01T15:48:54;11.10;99.90
4651;DHT22;2338;49.602;8.722;2023-04-01T15:52:10;11.00;99.90
4651;DHT22;2338;49.602;8.722;2023-04-01T15:55:28;11.00;99.90
4651;DHT22;2338;49.602;8.722;2023-04-01T15:58:40;11.00;99.90
4651;DHT22;2338;49.602;8.722;2023-04-01T16:01:36;11.00;99.90
4651;DHT22;2338;49.602;8.722;2023-04-01T16:04:38;11.00;99.90
4651;DHT22;2338;49.602;8.722;2023-04-01T16:07:54;10.90;99.90
4651;DHT22;2338;49.602;8.722;2023-04-01T16:10:58;11.00;99.90
4651;DHT22;2338;49.602;8.722;2023-04-01T16:13:55;10.90;99.90
4651;DHT22;2338;49.602;8.722;2023-04-01T16:16:57;10.90;99.90
4651;DHT22;2338;49.602;8.722;2023-04-01T16:19:58;10.90;99.90
4651;DHT22;2338;49.602;8.722;2023-04-01T16:22:51;10.90;99.90
4651;DHT22;2338;49.602;8.722;2023-04-01T16:25:40;10.90;99.90
4651;DHT22;2338;49.602;8.722;2023-04-01T16:28:32;10.90;99.90
4651;DHT22;2338;49.602;8.722;2023-04-01T16:31:30;10.90;99.90
4651;DHT22;2338;49.602;8.722;2023-04-01T16:34:20;10.90;99.90
4651;DHT22;2338;49.602;8.722;2023-04-01T16:37:11;10.90;99.90
4651;DHT22;2338;49.602;8.722;2023-04-01T16:40:09;10.90;99.90
4651;DHT22;2338;49.602;8.722;2023-04-01T16:43:06;10.80;99.90
4651;DHT22;2338;49.602;8.722;2023-04-01T16:46:33;10.80;99.90
4651;DHT22;2338;49.602;8.722;2023-04-01T16:49:31;10.80;99.90
4651;DHT22;2338;49.602;8.722;2023-04-01T16:52:34;10.90;99.90
4651;DHT22;2338;49.602;8.722;2023-04-01T16:55:21;10.90;99.90
4651;DHT22;2338;49.602;8.722;2023-04-01T16:58:10;10.80;99.90
4651;DHT22;2338;49.602;8.722;2023-04-01T17:01:01;10.80;99.90
4651;DHT22;2338;49.602;8.722;2023-04-01T17:03:57;10.90;99.90
4651;DHT22;2338;49.602;8.722;2023-04-01T17:06:48;10.80;99.90
4651;DHT22;2338;49.602;8.722;2023-04-01T17:09:46;10.80;99.90
4651;DHT22;2338;49.602;8.722;2023-04-01T17:12:37;10.80;99.90
4651;DHT22;2338;49.602;8.722;2023-04-01T17:15:31;10.90;99.90
4651;DHT22;2338;49.602;8.722;2023-04-01T17:18:27;10.90;99.90
4651;DHT22;2338;49.602;8.722;2023-04-01T17:21:38;10.90;99.90
4651;DHT22;2338;49.602;8.722;2023-04-01T17:24:40;10.90;99.90
4651;DHT22;2338;49.602;8.722;2023-04-01T17:27:37;10.90;99.90
4651;DHT22;2338;49.602;8.722;2023-04-01T17:30:32;10.80;99.90
4651;DHT22;2338;49.602;8.722;2023-04-01T17:33:31;10.80;99.90
4651;DHT22;2338;49.602;8.722;2023-04-01T17:36:33;10.80;99.90
4651;DHT22;2338;49.602;8.722;2023-04-01T17:39:32;10.90;99.90
4651;DHT22;2338;49.602;8.722;2023-04-01T17:42:26;10.90;99.90
4651;DHT22;2338;49.602;8.722;2023-04-01T17:45:21;10.80;99.90
4651;DHT22;2338;49.602;8.722;2023-04-01T17:48:17;10.80;99.90
4651;DHT22;2338;49.602;8.722;2023-04-01T17:51:19;10.90;99.90
4651;DHT22;2338;49.602;8.722;2023-04-01T17:54:20;10.90;99.90
4651;DHT22;2338;49.602;8.722;2023-04-01T17:57:23;10.80;99.90
4651;DHT22;2338;49.602;8.722;2023-04-01T18:00:26;10.80;99.90
4651;DHT22;2338;49.602;8.722;2023-04-01T18:03:24;10.80;99.90
4651;DHT22;2338;49.602;8.722;2023-04-01T18:06:18;10.80;99.90
4651;DHT22;2338;49.602;8.722;2023-04-01T18:09:15;10.80;99.90
4651;DHT22;2338;49.602;8.722;2023-04-01T18:12:11;10.80;99.90
4651;DHT22;2338;49.602;8.722;2023-04-01T18:15:09;10.80;99.90
4651;DHT22;2338;49.602;8.722;2023-04-01T18:18:10;10.80;99.90
4651;DHT22;2338;49.602;8.722;2023-04-01T18:21:01;10.80;99.90
4651;DHT22;2338;49.602;8.722;2023-04-01T18:23:53;10.70;99.90
4651;DHT22;2338;49.602;8.722;2023-04-01T18:26:45;10.70;99.90
4651;DHT22;2338;49.602;8.722;2023-04-01T18:29:39;10.70;99.90
4651;DHT22;2338;49.602;8.722;2023-04-01T18:32:33;10.60;99.90
4651;DHT22;2338;49.602;8.722;2023-04-01T18:35:44;10.60;99.90
4651;DHT22;2338;49.602;8.722;2023-04-01T18:38:35;10.50;99.90
4651;DHT22;2338;49.602;8.722;2023-04-01T18:41:30;10.50;99.90
4651;DHT22;2338;49.602;8.722;2023-04-01T18:44:34;10.50;99.90
4651;DHT22;2338;49.602;8.722;2023-04-01T18:47:27;10.50;99.90
4651;DHT22;2338;49.602;8.722;2023-04-01T18:50:23;10.50;99.90
4651;DHT22;2338;49.602;8.722;2023-04-01T18:53:17;10.50;99.90
4651;DHT22;2338;49.602;8.722;2023-04-01T18:56:06;10.50;99.90
4651;DHT22;2338;49.602;8.722;2023-04-01T18:58:54;10.50;99.90
4651;DHT22;2338;49.602;8.722;2023-04-01T19:01:55;10.40;99.90
4651;DHT22;2338;49.602;8.722;2023-04-01T19:04:50;10.40;99.90
4651;DHT22;2338;49.602;8.722;2023-04-01T19:07:43;10.40;99.90
4651;DHT22;2338;49.602;8.722;2023-04-01T19:10:39;10.50;99.90
4651;DHT22;2338;49.602;8.722;2023-04-01T19:13:30;10.40;99.90
4651;DHT22;2338;49.602;8.722;2023-04-01T19:16:28;10.50;99.90
4651;DHT22;2338;49.602;8.722;2023-04-01T19:19:46;10.40;99.90
4651;DHT22;2338;49.602;8.722;2023-04-01T19:22:53;10.40;99.90
4651;DHT22;2338;49.602;8.722;2023-04-01T19:25:49;10.40;99.90
4651;DHT22;2338;49.602;8.722;2023-04-01T19:28:43;10.40;99.90
4651;DHT22;2338;49.602;8.722;2023-04-01T19:31:42;10.30;99.90
4651;DHT22;2338;49.602;8.722;2023-04-01T19:34:45;10.30;99.90
4651;DHT22;2338;49.602;8.722;2023-04-01T19:37:39;10.40;99.90
4651;DHT22;2338;49.602;8.722;2023-04-01T19:40:45;10.40;99.90
4651;DHT22;2338;49.602;8.722;2023-04-01T19:43:50;10.40;99.90
4651;DHT22;2338;49.602;8.722;2023-04-01T19:46:38;10.40;99.90
4651;DHT22;2338;49.602;8.722;2023-04-01T19:49:45;10.40;99.90
4651;DHT22;2338;49.602;8.722;2023-04-01T19:52:36;10.30;99.90
4651;DHT22;2338;49.602;8.722;2023-04-01T19:55:33;10.40;99.90
4651;DHT22;2338;49.602;8.722;2023-04-01T19:58:24;10.30;99.90
4651;DHT22;2338;49.602;8.722;2023-04-01T20:01:16;10.30;99.90
4651;DHT22;2338;49.602;8.722;2023-04-01T20:04:05;10.30;99.90